地図

経路データ

SID SEASON NUMBER BASIN SUBBASIN NAME ISO_TIME NATURE LAT LON WMO_WIND WMO_PRES WMO_AGENCY TRACK_TYPE DIST2LAND LANDFALL IFLAG USA_AGENCY USA_ATCF_ID USA_LAT USA_LON USA_RECORD USA_STATUS USA_WIND USA_PRES USA_SSHS USA_R34_NE USA_R34_SE USA_R34_SW USA_R34_NW USA_R50_NE USA_R50_SE USA_R50_SW USA_R50_NW USA_R64_NE USA_R64_SE USA_R64_SW USA_R64_NW USA_POCI USA_ROCI USA_RMW USA_EYE TOKYO_LAT TOKYO_LON TOKYO_GRADE TOKYO_WIND TOKYO_PRES TOKYO_R50_DIR TOKYO_R50_LONG TOKYO_R50_SHORT TOKYO_R30_DIR TOKYO_R30_LONG TOKYO_R30_SHORT TOKYO_LAND CMA_LAT CMA_LON CMA_CAT CMA_WIND CMA_PRES HKO_LAT HKO_LON HKO_CAT HKO_WIND HKO_PRES NEWDELHI_LAT NEWDELHI_LON NEWDELHI_GRADE NEWDELHI_WIND NEWDELHI_PRES NEWDELHI_CI NEWDELHI_DP NEWDELHI_POCI REUNION_LAT REUNION_LON REUNION_TYPE REUNION_WIND REUNION_PRES REUNION_TNUM REUNION_CI REUNION_RMW REUNION_R34_NE REUNION_R34_SE REUNION_R34_SW REUNION_R34_NW REUNION_R50_NE REUNION_R50_SE REUNION_R50_SW REUNION_R50_NW REUNION_R64_NE REUNION_R64_SE REUNION_R64_SW REUNION_R64_NW BOM_LAT BOM_LON BOM_TYPE BOM_WIND BOM_PRES BOM_TNUM BOM_CI BOM_RMW BOM_R34_NE BOM_R34_SE BOM_R34_SW BOM_R34_NW BOM_R50_NE BOM_R50_SE BOM_R50_SW BOM_R50_NW BOM_R64_NE BOM_R64_SE BOM_R64_SW BOM_R64_NW BOM_ROCI BOM_POCI BOM_EYE BOM_POS_METHOD BOM_PRES_METHOD NADI_LAT NADI_LON NADI_CAT NADI_WIND NADI_PRES WELLINGTON_LAT WELLINGTON_LON WELLINGTON_WIND WELLINGTON_PRES DS824_LAT DS824_LON DS824_STAGE DS824_WIND DS824_PRES TD9636_LAT TD9636_LON TD9636_STAGE TD9636_WIND TD9636_PRES TD9635_LAT TD9635_LON TD9635_WIND TD9635_PRES TD9635_ROCI NEUMANN_LAT NEUMANN_LON NEUMANN_CLASS NEUMANN_WIND NEUMANN_PRES MLC_LAT MLC_LON MLC_CLASS MLC_WIND MLC_PRES USA_GUST BOM_GUST BOM_GUST_PER REUNION_GUST REUNION_GUST_PER USA_SEAHGT USA_SEARAD_NE USA_SEARAD_SE USA_SEARAD_SW USA_SEARAD_NW STORM_SPEED STORM_DIR
1975267N23088 1975 100 NI BB NOT_NAMED 1975-09-24 00:00:00 TS 22.5000 87.8000 main 0 0 O________OO___ jtwc_io IO131975 22.5000 87.8000 -1 22.5000 87.8000 TC 25 22.5000 87.8000 1 2 269
1975267N23088 1975 100 NI BB NOT_NAMED 1975-09-24 03:00:00 TS 22.4990 87.6959 main 0 0 P________PP___ IO131975 22.5000 87.7025 -1 22.5000 87.7025 TC 25 22.4970 87.6829 1 2 270
1975267N23088 1975 100 NI BB NOT_NAMED 1975-09-24 06:00:00 TS 22.4984 87.5909 main 0 0 O________OP___ jtwc_io IO131975 22.5000 87.6000 -1 22.5000 87.6000 TC 25 22.4952 87.5726 1 2 270
1975267N23088 1975 100 NI BB NOT_NAMED 1975-09-24 09:00:00 TS 22.4986 87.4870 main 0 0 P________PP___ IO131975 22.5000 87.4925 -1 22.5000 87.4925 TC 25 22.4958 87.4760 1 2 271
1975267N23088 1975 100 NI BB NOT_NAMED 1975-09-24 12:00:00 TS 22.5000 87.4000 main 0 0 O________OO___ jtwc_io IO131975 22.5000 87.4000 -1 22.5000 87.4000 TC 25 22.5000 87.4000 1 1 270
1975267N23088 1975 100 NI BB NOT_NAMED 1975-09-24 15:00:00 TS 22.4982 87.3487 main 0 0 P________PP___ IO131975 22.4925 87.3500 -1 22.4925 87.3500 TC 25 22.5095 87.3461 1 1 275
1975267N23088 1975 100 NI BB NOT_NAMED 1975-09-24 18:00:00 TS 22.5091 87.2983 main 0 0 O________OP___ jtwc_io IO131975 22.5000 87.3000 -1 22.5000 87.3000 TC 25 22.5272 87.2948 1 1 293
1975267N23088 1975 100 NI BB NOT_NAMED 1975-09-24 21:00:00 TS 22.5471 87.2270 main 0 0 P________PP___ IO131975 22.5424 87.2300 -1 22.5424 87.2300 TC 25 22.5563 87.2211 1 2 297
1975267N23088 1975 100 NI BB NOT_NAMED 1975-09-25 00:00:00 TS 22.6000 87.1000 main 0 0 O________OO___ jtwc_io IO131975 22.6000 87.1000 -1 22.6000 87.1000 TC 25 22.6000 87.1000 1 3 285
1975267N23088 1975 100 NI BB NOT_NAMED 1975-09-25 03:00:00 TS 22.6351 86.8803 main 0 0 P________PP___ IO131975 22.6425 86.8725 -1 22.6425 86.8725 TC 25 22.6202 86.8958 1 5 281
1975267N23088 1975 100 NI BB NOT_NAMED 1975-09-25 06:00:00 TS 22.6868 86.6148 main 0 0 O________OP___ jtwc_io IO131975 22.7000 86.6000 -1 22.7000 86.6000 TC 25 22.6603 86.6443 1 5 284
1975267N23088 1975 100 NI BB NOT_NAMED 1975-09-25 09:00:00 TS 22.7567 86.3518 main 0 0 P________PP___ IO131975 22.7625 86.3424 -1 22.7625 86.3424 TC 25 22.7452 86.3707 1 5 294
1975267N23088 1975 100 NI BB NOT_NAMED 1975-09-25 12:00:00 TS 22.9000 86.1000 main 0 0 O________OO___ jtwc_io IO131975 22.9000 86.1000 -1 22.9000 86.1000 TC 25 22.9000 86.1000 1 6 314
1975267N23088 1975 100 NI BB NOT_NAMED 1975-09-25 15:00:00 TS 23.1674 85.8907 main 0 0 P________PP___ IO131975 23.1624 85.8999 -1 23.1624 85.8999 TC 25 23.1773 85.8724 1 7 328
1975267N23088 1975 100 NI BB NOT_NAMED 1975-09-25 18:00:00 TS 23.5066 85.6835 main 0 0 O________OP___ jtwc_io IO131975 23.5000 85.7000 -1 23.5000 85.7000 TC 25 23.5198 85.6506 1 8 330
1975267N23088 1975 100 NI BB NOT_NAMED 1975-09-25 21:00:00 TS 23.8741 85.4479 main 0 0 P________PP___ IO131975 23.8725 85.4576 -1 23.8725 85.4576 TC 25 23.8773 85.4285 1 8 327
1975267N23088 1975 100 NI BB NOT_NAMED 1975-09-26 00:00:00 TS 24.2000 85.2000 main 0 0 O________OO___ jtwc_io IO131975 24.2000 85.2000 -1 24.2000 85.2000 TC 25 24.2000 85.2000 1 7 319
1975267N23088 1975 100 NI BB NOT_NAMED 1975-09-26 03:00:00 TS 24.3849 84.9587 main 0 0 P________PP___ IO131975 24.3725 84.9497 -1 24.3725 84.9497 TC 25 24.4097 84.9766 1 6 306
1975267N23088 1975 100 NI BB NOT_NAMED 1975-09-26 06:00:00 TS 24.5265 84.7146 main 0 0 O________OP___ jtwc_io IO131975 24.5000 84.7000 -1 24.5000 84.7000 TC 25 24.5795 84.7437 1 5 306
1975267N23088 1975 100 NI BB NOT_NAMED 1975-09-26 09:00:00 TS 24.7014 84.4729 main 0 0 P________PP___ IO131975 24.6849 84.4648 -1 24.6849 84.4648 TC 25 24.7346 84.4890 1 6 309
1975267N23088 1975 100 NI BB NOT_NAMED 1975-09-26 12:00:00 TS 24.9000 84.2000 main 0 0 O________OO___ jtwc_io IO131975 24.9000 84.2000 -1 24.9000 84.2000 TC 25 24.9000 84.2000 1 7 308
1975267N23088 1975 100 NI BB NOT_NAMED 1975-09-26 15:00:00 TS 25.1425 83.8581 main 0 0 P________PP___ IO131975 25.1500 83.8725 -1 25.1500 83.8725 TC 25 25.1275 83.8292 1 8 307
1975267N23088 1975 100 NI BB NOT_NAMED 1975-09-26 18:00:00 TS 25.3886 83.4762 main 0 0 O________OP___ jtwc_io IO131975 25.4000 83.5000 -1 25.4000 83.5000 TC 25 25.3659 83.4286 1 9 303
1975267N23088 1975 100 NI BB NOT_NAMED 1975-09-26 21:00:00 TS 25.6088 83.0695 main 0 0 P________PP___ IO131975 25.6151 83.0850 -1 25.6151 83.0850 TC 25 25.5962 83.0386 1 8 300
1975267N23088 1975 100 NI BB NOT_NAMED 1975-09-27 00:00:00 TS 25.8000 82.7000 main 0 0 O________OO___ jtwc_io IO131975 25.8000 82.7000 -1 25.8000 82.7000 TC 25 25.8000 82.7000 1 7 301
1975267N23088 1975 100 NI BB NOT_NAMED 1975-09-27 03:00:00 TS 25.9646 82.4178 main 0 0 P________PP___ IO131975 25.9649 82.4049 -1 25.9649 82.4049 TC 25 25.9639 82.4435 1 5 304
1975267N23088 1975 100 NI BB NOT_NAMED 1975-09-27 06:00:00 TS 26.0981 82.2189 main 0 0 O________OP___ jtwc_io IO131975 26.1000 82.2000 -1 26.1000 82.2000 TC 25 26.0944 82.2567 1 4 309
1975267N23088 1975 100 NI BB NOT_NAMED 1975-09-27 09:00:00 TS 26.2059 82.0906 main 0 0 P________PP___ IO131975 26.2075 82.0775 -1 26.2075 82.0775 TC 25 26.2027 82.1167 1 3 316
1975267N23088 1975 100 NI BB NOT_NAMED 1975-09-27 12:00:00 TS 26.3000 82.0000 main 0 O________OO___ jtwc_io IO131975 26.3000 82.0000 -1 26.3000 82.0000 TC 25 26.3000 82.0000 6 2 319

IBTrACS Databaseについて

本データベースは、米国NOAAが公開する1842年以降の世界の熱帯低気圧のベストトラックデータアーカイブInternational Best Track Archive for Climate Stewardship (IBTrACS)を、ウェブで閲覧しやすい形式に変換したものです。

最終更新日:2021-12-08